Aviation Digital Data Service (ADDS)

Output produced by METARs form (1356 UTC 21 August 2019)
found at http://www.aviationweather.gov/metar/data/
 
Forecast for: FBGZ (GHANZI , BW)
Text: TAF FBGZ 211200Z 2115/2124 07010KT CAVOK
Forecast period: 1500 UTC 21 August 2019 to 0000 UTC 22 August 2019
Forecast type: FROM: standard forecast or significant change
Winds: from the ENE (70 degrees) at 12 MPH (10 knots; 5.1 m/s)
Visibility: 6 or more miles 10+ km)
Ceiling: unknown
Clouds: missing
Weather: NSW  (no significant weather)